sensor_id;sensor_type;location;lat;lon;timestamp;pressure;altitude;pressure_sealevel;temperature;humidity
55685;BME280;41883;49.544;8.646;2023-04-04T10:18:48;101296.03;;;18.22;nan
55685;BME280;41883;49.544;8.646;2023-04-04T10:21:13;101303.94;;;18.16;nan
55685;BME280;41883;49.544;8.646;2023-04-04T10:35:58;101298.59;;;18.16;nan
55685;BME280;41883;49.544;8.646;2023-04-04T10:38:27;101300.16;;;17.26;nan
55685;BME280;41883;49.544;8.646;2023-04-04T10:40:52;101295.78;;;18.77;nan
55685;BME280;41883;49.544;8.646;2023-04-04T10:43:20;101311.69;;;19.72;nan
55685;BME280;41883;49.544;8.646;2023-04-04T10:45:48;101304.69;;;19.35;nan
55685;BME280;41883;49.544;8.646;2023-04-04T10:50:39;101299.00;;;18.87;nan
55685;BME280;41883;49.544;8.646;2023-04-04T10:53:05;101314.81;;;19.18;nan
55685;BME280;41883;49.544;8.646;2023-04-04T10:55:30;101314.41;;;19.58;nan
55685;BME280;41883;49.544;8.646;2023-04-04T10:57:56;101305.91;;;19.33;nan
55685;BME280;41883;49.544;8.646;2023-04-04T11:00:22;101297.34;;;19.22;nan
55685;BME280;41883;49.544;8.646;2023-04-04T11:07:45;101274.06;;;18.27;nan
55685;BME280;41883;49.544;8.646;2023-04-04T11:10:29;101256.56;;;17.87;nan
55685;BME280;41883;49.544;8.646;2023-04-04T11:12:55;101267.78;;;18.20;nan
55685;BME280;41883;49.544;8.646;2023-04-04T11:15:23;101265.38;;;18.40;nan
55685;BME280;41883;49.544;8.646;2023-04-04T11:17:56;101256.63;;;18.31;nan
55685;BME280;41883;49.544;8.646;2023-04-04T11:20:31;101265.06;;;18.94;nan
55685;BME280;41883;49.544;8.646;2023-04-04T11:23:17;101277.03;;;20.34;nan
55685;BME280;41883;49.544;8.646;2023-04-04T11:28:23;101274.81;;;19.60;nan
55685;BME280;41883;49.544;8.646;2023-04-04T11:31:21;101251.66;;;19.80;nan
55685;BME280;41883;49.544;8.646;2023-04-04T11:33:35;101257.44;;;19.13;nan
55685;BME280;41883;49.544;8.646;2023-04-04T11:39:10;101232.03;;;19.30;nan
55685;BME280;41883;49.544;8.646;2023-04-04T11:44:07;101250.09;;;19.21;nan
55685;BME280;41883;49.544;8.646;2023-04-04T11:46:32;101243.88;;;19.64;nan
55685;BME280;41883;49.544;8.646;2023-04-04T11:48:58;101272.50;;;19.35;nan
55685;BME280;41883;49.544;8.646;2023-04-04T11:51:23;101247.94;;;18.29;nan
55685;BME280;41883;49.544;8.646;2023-04-04T11:53:49;101241.56;;;18.00;nan
55685;BME280;41883;49.544;8.646;2023-04-04T11:56:15;101239.88;;;18.59;nan
55685;BME280;41883;49.544;8.646;2023-04-04T11:58:40;101232.81;;;17.69;nan
55685;BME280;41883;49.544;8.646;2023-04-04T12:01:10;101384.88;;;17.17;nan
55685;BME280;41883;49.544;8.646;2023-04-04T12:03:35;101408.25;;;15.94;nan
55685;BME280;41883;49.544;8.646;2023-04-04T12:06:01;101403.28;;;14.98;nan
55685;BME280;41883;49.544;8.646;2023-04-04T12:08:27;101404.78;;;14.48;nan
55685;BME280;41883;49.544;8.646;2023-04-04T12:10:52;101396.94;;;12.84;nan
55685;BME280;41883;49.544;8.646;2023-04-04T12:13:17;101408.28;;;13.87;nan
55685;BME280;41883;49.544;8.646;2023-04-04T12:15:43;101397.91;;;14.37;nan
55685;BME280;41883;49.544;8.646;2023-04-04T12:18:10;101383.19;;;13.35;nan
55685;BME280;41883;49.544;8.646;2023-04-04T12:20:46;101383.22;;;13.26;nan
55685;BME280;41883;49.544;8.646;2023-04-04T12:23:11;101380.97;;;13.49;nan
55685;BME280;41883;49.544;8.646;2023-04-04T12:25:37;101380.19;;;12.83;nan
55685;BME280;41883;49.544;8.646;2023-04-04T12:28:03;101369.56;;;12.36;nan
55685;BME280;41883;49.544;8.646;2023-04-04T12:30:30;101379.75;;;11.73;nan
55685;BME280;41883;49.544;8.646;2023-04-04T12:32:56;101377.84;;;12.04;nan
55685;BME280;41883;49.544;8.646;2023-04-04T12:35:21;101380.75;;;12.20;nan
55685;BME280;41883;49.544;8.646;2023-04-04T12:37:53;101367.50;;;12.10;nan
55685;BME280;41883;49.544;8.646;2023-04-04T12:40:20;101367.47;;;11.62;nan
55685;BME280;41883;49.544;8.646;2023-04-04T12:42:47;101366.31;;;11.35;nan
55685;BME280;41883;49.544;8.646;2023-04-04T12:45:12;101366.53;;;11.22;nan
55685;BME280;41883;49.544;8.646;2023-04-04T12:47:38;101369.63;;;11.18;nan
55685;BME280;41883;49.544;8.646;2023-04-04T12:50:03;101357.03;;;11.10;nan
55685;BME280;41883;49.544;8.646;2023-04-04T12:52:32;101359.09;;;10.97;nan
55685;BME280;41883;49.544;8.646;2023-04-04T12:55:04;101350.47;;;10.95;nan
55685;BME280;41883;49.544;8.646;2023-04-04T12:57:30;101355.69;;;10.75;nan
55685;BME280;41883;49.544;8.646;2023-04-04T12:59:55;101358.16;;;10.46;nan
55685;BME280;41883;49.544;8.646;2023-04-04T13:02:21;101356.81;;;10.31;nan
55685;BME280;41883;49.544;8.646;2023-04-04T13:04:47;101351.47;;;10.42;nan
55685;BME280;41883;49.544;8.646;2023-04-04T13:07:19;101348.69;;;10.23;nan
55685;BME280;41883;49.544;8.646;2023-04-04T13:09:56;101340.28;;;10.17;nan
55685;BME280;41883;49.544;8.646;2023-04-04T13:12:21;101344.22;;;10.02;nan
55685;BME280;41883;49.544;8.646;2023-04-04T13:14:54;101345.16;;;9.80;nan
55685;BME280;41883;49.544;8.646;2023-04-04T13:17:20;101343.38;;;9.81;nan
55685;BME280;41883;49.544;8.646;2023-04-04T13:19:46;101339.25;;;9.88;nan
55685;BME280;41883;49.544;8.646;2023-04-04T13:22:11;101329.66;;;9.87;nan
55685;BME280;41883;49.544;8.646;2023-04-04T13:24:36;101328.03;;;9.95;nan
55685;BME280;41883;49.544;8.646;2023-04-04T13:27:01;101332.41;;;9.85;nan
55685;BME280;41883;49.544;8.646;2023-04-04T13:29:26;101325.00;;;9.79;nan
55685;BME280;41883;49.544;8.646;2023-04-04T13:31:52;101330.41;;;9.98;nan
55685;BME280;41883;49.544;8.646;2023-04-04T13:34:17;101315.28;;;10.00;nan
55685;BME280;41883;49.544;8.646;2023-04-04T13:36:43;101328.09;;;10.05;nan
55685;BME280;41883;49.544;8.646;2023-04-04T13:39:08;101320.88;;;10.07;nan
55685;BME280;41883;49.544;8.646;2023-04-04T13:41:34;101322.50;;;9.98;nan
55685;BME280;41883;49.544;8.646;2023-04-04T13:43:59;101309.59;;;9.84;nan
55685;BME280;41883;49.544;8.646;2023-04-04T13:46:24;101322.69;;;9.86;nan
55685;BME280;41883;49.544;8.646;2023-04-04T13:48:49;101324.44;;;9.96;nan
55685;BME280;41883;49.544;8.646;2023-04-04T13:51:14;101311.56;;;9.82;nan
55685;BME280;41883;49.544;8.646;2023-04-04T13:53:42;101321.75;;;9.87;nan
55685;BME280;41883;49.544;8.646;2023-04-04T13:56:09;101305.78;;;9.77;nan
55685;BME280;41883;49.544;8.646;2023-04-04T13:58:34;101308.69;;;9.74;nan
55685;BME280;41883;49.544;8.646;2023-04-04T14:01:00;101310.38;;;9.75;nan
55685;BME280;41883;49.544;8.646;2023-04-04T14:03:26;101305.25;;;9.62;nan
55685;BME280;41883;49.544;8.646;2023-04-04T14:05:52;101303.94;;;9.68;nan
55685;BME280;41883;49.544;8.646;2023-04-04T14:08:17;101293.38;;;9.68;nan
55685;BME280;41883;49.544;8.646;2023-04-04T14:10:42;101292.97;;;9.72;nan
55685;BME280;41883;49.544;8.646;2023-04-04T14:13:07;101298.88;;;9.65;nan
55685;BME280;41883;49.544;8.646;2023-04-04T14:15:32;101289.63;;;9.70;nan
55685;BME280;41883;49.544;8.646;2023-04-04T14:17:58;101287.69;;;9.72;nan
55685;BME280;41883;49.544;8.646;2023-04-04T14:20:23;101279.84;;;9.82;nan
55685;BME280;41883;49.544;8.646;2023-04-04T14:22:49;101277.78;;;9.86;nan
55685;BME280;41883;49.544;8.646;2023-04-04T14:25:14;101279.91;;;9.71;nan
55685;BME280;41883;49.544;8.646;2023-04-04T14:27:39;101276.44;;;9.70;nan
55685;BME280;41883;49.544;8.646;2023-04-04T14:30:05;101274.03;;;9.67;nan
55685;BME280;41883;49.544;8.646;2023-04-04T14:32:30;101271.72;;;9.74;nan
55685;BME280;41883;49.544;8.646;2023-04-04T14:35:02;101274.69;;;9.81;nan
55685;BME280;41883;49.544;8.646;2023-04-04T14:37:27;101270.50;;;9.78;nan
55685;BME280;41883;49.544;8.646;2023-04-04T14:39:52;101271.34;;;9.78;nan
55685;BME280;41883;49.544;8.646;2023-04-04T14:42:17;101259.22;;;9.76;nan
55685;BME280;41883;49.544;8.646;2023-04-04T14:44:43;101268.97;;;9.75;nan
55685;BME280;41883;49.544;8.646;2023-04-04T14:47:08;101260.72;;;9.90;nan
55685;BME280;41883;49.544;8.646;2023-04-04T14:49:33;101259.41;;;9.84;nan
55685;BME280;41883;49.544;8.646;2023-04-04T14:51:58;101246.19;;;9.84;nan
55685;BME280;41883;49.544;8.646;2023-04-04T14:54:23;101244.72;;;9.91;nan
55685;BME280;41883;49.544;8.646;2023-04-04T14:56:49;101246.06;;;9.86;nan
55685;BME280;41883;49.544;8.646;2023-04-04T14:59:14;101249.31;;;9.89;nan
55685;BME280;41883;49.544;8.646;2023-04-04T15:01:40;101245.19;;;9.75;nan
55685;BME280;41883;49.544;8.646;2023-04-04T15:04:05;101243.66;;;9.73;nan
55685;BME280;41883;49.544;8.646;2023-04-04T15:06:31;101248.84;;;9.63;nan
55685;BME280;41883;49.544;8.646;2023-04-04T15:09:00;101239.41;;;9.61;nan
55685;BME280;41883;49.544;8.646;2023-04-04T15:11:26;101245.94;;;9.66;nan
55685;BME280;41883;49.544;8.646;2023-04-04T15:13:52;101251.19;;;9.77;nan
55685;BME280;41883;49.544;8.646;2023-04-04T15:16:17;101245.38;;;9.84;nan
55685;BME280;41883;49.544;8.646;2023-04-04T15:18:42;101247.63;;;9.88;nan
55685;BME280;41883;49.544;8.646;2023-04-04T15:21:07;101245.03;;;9.77;nan
55685;BME280;41883;49.544;8.646;2023-04-04T15:23:32;101237.97;;;9.77;nan
55685;BME280;41883;49.544;8.646;2023-04-04T15:25:58;101245.91;;;9.77;nan
55685;BME280;41883;49.544;8.646;2023-04-04T15:28:23;101227.41;;;9.77;nan
55685;BME280;41883;49.544;8.646;2023-04-04T15:30:48;101228.25;;;9.78;nan
55685;BME280;41883;49.544;8.646;2023-04-04T15:33:13;101236.16;;;9.78;nan
55685;BME280;41883;49.544;8.646;2023-04-04T15:35:41;101245.03;;;9.77;nan
55685;BME280;41883;49.544;8.646;2023-04-04T15:38:07;101236.22;;;9.67;nan
55685;BME280;41883;49.544;8.646;2023-04-04T15:40:32;101235.13;;;9.69;nan
55685;BME280;41883;49.544;8.646;2023-04-04T15:42:57;101227.09;;;9.71;nan
55685;BME280;41883;49.544;8.646;2023-04-04T15:45:22;101230.50;;;9.83;nan
55685;BME280;41883;49.544;8.646;2023-04-04T15:47:47;101231.50;;;9.91;nan
55685;BME280;41883;49.544;8.646;2023-04-04T15:50:13;101224.81;;;9.87;nan
55685;BME280;41883;49.544;8.646;2023-04-04T15:52:38;101219.41;;;9.89;nan
55685;BME280;41883;49.544;8.646;2023-04-04T15:55:03;101218.56;;;9.88;nan
55685;BME280;41883;49.544;8.646;2023-04-04T15:57:33;101226.31;;;10.01;nan
55685;BME280;41883;49.544;8.646;2023-04-04T15:59:59;101226.50;;;9.88;nan
55685;BME280;41883;49.544;8.646;2023-04-04T16:02:24;101225.94;;;9.85;nan
55685;BME280;41883;49.544;8.646;2023-04-04T16:04:49;101223.53;;;9.82;nan
55685;BME280;41883;49.544;8.646;2023-04-04T16:07:14;101224.44;;;9.71;nan
55685;BME280;41883;49.544;8.646;2023-04-04T16:09:39;101219.00;;;9.72;nan
55685;BME280;41883;49.544;8.646;2023-04-04T16:12:05;101218.78;;;9.75;nan
55685;BME280;41883;49.544;8.646;2023-04-04T16:14:30;101220.75;;;9.83;nan
55685;BME280;41883;49.544;8.646;2023-04-04T16:16:56;101221.53;;;9.74;nan
55685;BME280;41883;49.544;8.646;2023-04-04T16:19:21;101220.31;;;9.78;nan
55685;BME280;41883;49.544;8.646;2023-04-04T16:21:46;101215.81;;;9.90;nan
55685;BME280;41883;49.544;8.646;2023-04-04T16:24:13;101215.09;;;9.88;nan
55685;BME280;41883;49.544;8.646;2023-04-04T16:26:39;101214.91;;;10.10;nan
55685;BME280;41883;49.544;8.646;2023-04-04T16:29:10;101218.03;;;10.46;nan
55685;BME280;41883;49.544;8.646;2023-04-04T16:31:36;101212.31;;;10.51;nan
55685;BME280;41883;49.544;8.646;2023-04-04T16:34:01;101213.28;;;10.90;nan
55685;BME280;41883;49.544;8.646;2023-04-04T16:36:28;101211.91;;;11.35;nan
55685;BME280;41883;49.544;8.646;2023-04-04T16:38:54;101205.75;;;11.44;nan
55685;BME280;41883;49.544;8.646;2023-04-04T16:41:19;101211.47;;;11.68;nan
55685;BME280;41883;49.544;8.646;2023-04-04T16:43:44;101204.72;;;11.94;nan
55685;BME280;41883;49.544;8.646;2023-04-04T16:46:13;101196.22;;;11.80;nan
55685;BME280;41883;49.544;8.646;2023-04-04T16:48:38;101202.50;;;11.79;nan
55685;BME280;41883;49.544;8.646;2023-04-04T16:51:04;101199.81;;;12.08;nan
55685;BME280;41883;49.544;8.646;2023-04-04T16:53:29;101194.22;;;12.67;nan
55685;BME280;41883;49.544;8.646;2023-04-04T16:55:54;101194.38;;;12.83;nan
55685;BME280;41883;49.544;8.646;2023-04-04T16:58:19;101194.84;;;12.51;nan
55685;BME280;41883;49.544;8.646;2023-04-04T17:00:47;101190.78;;;12.01;nan
55685;BME280;41883;49.544;8.646;2023-04-04T17:03:13;101188.97;;;11.92;nan
55685;BME280;41883;49.544;8.646;2023-04-04T17:05:38;101191.38;;;11.66;nan
55685;BME280;41883;49.544;8.646;2023-04-04T17:08:03;101202.97;;;11.26;nan
55685;BME280;41883;49.544;8.646;2023-04-04T17:10:28;101198.09;;;10.82;nan
55685;BME280;41883;49.544;8.646;2023-04-04T17:12:54;101196.66;;;10.69;nan
55685;BME280;41883;49.544;8.646;2023-04-04T17:15:19;101197.22;;;10.72;nan
55685;BME280;41883;49.544;8.646;2023-04-04T17:17:44;101200.00;;;10.61;nan
55685;BME280;41883;49.544;8.646;2023-04-04T17:20:09;101195.91;;;10.47;nan
55685;BME280;41883;49.544;8.646;2023-04-04T17:22:41;101201.16;;;10.07;nan
55685;BME280;41883;49.544;8.646;2023-04-04T17:25:06;101202.81;;;9.56;nan
55685;BME280;41883;49.544;8.646;2023-04-04T17:27:32;101200.38;;;9.11;nan
55685;BME280;41883;49.544;8.646;2023-04-04T17:29:57;101203.59;;;8.82;nan
55685;BME280;41883;49.544;8.646;2023-04-04T17:32:23;101197.41;;;8.61;nan
55685;BME280;41883;49.544;8.646;2023-04-04T17:34:48;101198.47;;;8.47;nan
55685;BME280;41883;49.544;8.646;2023-04-04T17:37:13;101191.03;;;8.29;nan
55685;BME280;41883;49.544;8.646;2023-04-04T17:39:38;101195.59;;;8.16;nan
55685;BME280;41883;49.544;8.646;2023-04-04T17:42:04;101188.41;;;8.07;nan
55685;BME280;41883;49.544;8.646;2023-04-04T17:44:29;101200.38;;;8.00;nan
55685;BME280;41883;49.544;8.646;2023-04-04T17:46:55;101196.78;;;7.90;nan
55685;BME280;41883;49.544;8.646;2023-04-04T17:49:20;101188.59;;;7.81;nan
55685;BME280;41883;49.544;8.646;2023-04-04T17:51:46;101190.03;;;7.74;nan
55685;BME280;41883;49.544;8.646;2023-04-04T17:54:11;101196.13;;;7.63;nan
55685;BME280;41883;49.544;8.646;2023-04-04T17:56:37;101195.25;;;7.52;nan
55685;BME280;41883;49.544;8.646;2023-04-04T17:59:02;101191.66;;;7.41;nan
55685;BME280;41883;49.544;8.646;2023-04-04T18:01:28;101191.03;;;7.38;nan
55685;BME280;41883;49.544;8.646;2023-04-04T18:03:53;101194.56;;;7.26;nan
55685;BME280;41883;49.544;8.646;2023-04-04T18:06:18;101189.16;;;7.16;nan
55685;BME280;41883;49.544;8.646;2023-04-04T18:08:43;101189.84;;;7.07;nan
55685;BME280;41883;49.544;8.646;2023-04-04T18:11:09;101189.66;;;6.97;nan
55685;BME280;41883;49.544;8.646;2023-04-04T18:13:34;101196.22;;;6.91;nan
55685;BME280;41883;49.544;8.646;2023-04-04T18:16:00;101198.44;;;6.85;nan
55685;BME280;41883;49.544;8.646;2023-04-04T18:18:26;101189.53;;;6.74;nan
55685;BME280;41883;49.544;8.646;2023-04-04T18:20:52;101195.34;;;6.67;nan
55685;BME280;41883;49.544;8.646;2023-04-04T18:23:18;101196.63;;;6.61;nan
55685;BME280;41883;49.544;8.646;2023-04-04T18:25:43;101203.38;;;6.52;nan
55685;BME280;41883;49.544;8.646;2023-04-04T18:28:08;101204.03;;;6.43;nan
55685;BME280;41883;49.544;8.646;2023-04-04T18:30:34;101205.31;;;6.37;nan
55685;BME280;41883;49.544;8.646;2023-04-04T18:33:00;101207.66;;;6.29;nan
55685;BME280;41883;49.544;8.646;2023-04-04T18:35:25;101212.25;;;6.26;nan
55685;BME280;41883;49.544;8.646;2023-04-04T18:37:50;101210.91;;;6.20;nan
55685;BME280;41883;49.544;8.646;2023-04-04T18:40:15;101209.66;;;6.13;nan
55685;BME280;41883;49.544;8.646;2023-04-04T18:42:41;101208.19;;;6.09;nan
55685;BME280;41883;49.544;8.646;2023-04-04T18:45:06;101210.50;;;6.01;nan
55685;BME280;41883;49.544;8.646;2023-04-04T18:47:32;101217.94;;;5.94;nan
55685;BME280;41883;49.544;8.646;2023-04-04T18:49:57;101215.38;;;5.92;nan
55685;BME280;41883;49.544;8.646;2023-04-04T18:52:22;101217.41;;;5.89;nan
55685;BME280;41883;49.544;8.646;2023-04-04T18:54:47;101218.75;;;5.82;nan
55685;BME280;41883;49.544;8.646;2023-04-04T18:57:13;101218.19;;;5.77;nan
55685;BME280;41883;49.544;8.646;2023-04-04T18:59:40;101211.69;;;5.69;nan
55685;BME280;41883;49.544;8.646;2023-04-04T19:02:05;101213.78;;;5.64;nan
55685;BME280;41883;49.544;8.646;2023-04-04T19:04:30;101221.34;;;5.56;nan
55685;BME280;41883;49.544;8.646;2023-04-04T19:06:56;101225.19;;;5.50;nan
55685;BME280;41883;49.544;8.646;2023-04-04T19:09:24;101233.81;;;5.52;nan
55685;BME280;41883;49.544;8.646;2023-04-04T19:11:51;101225.84;;;5.41;nan
55685;BME280;41883;49.544;8.646;2023-04-04T19:14:17;101226.22;;;5.35;nan
55685;BME280;41883;49.544;8.646;2023-04-04T19:16:43;101229.22;;;5.29;nan
55685;BME280;41883;49.544;8.646;2023-04-04T19:19:08;101232.19;;;5.24;nan
55685;BME280;41883;49.544;8.646;2023-04-04T19:21:33;101240.13;;;5.23;nan
55685;BME280;41883;49.544;8.646;2023-04-04T19:23:59;101241.81;;;5.24;nan
55685;BME280;41883;49.544;8.646;2023-04-04T19:26:24;101238.03;;;5.15;nan
55685;BME280;41883;49.544;8.646;2023-04-04T19:28:49;101247.31;;;5.06;nan
55685;BME280;41883;49.544;8.646;2023-04-04T19:31:21;101236.06;;;5.04;nan
55685;BME280;41883;49.544;8.646;2023-04-04T19:33:52;101239.34;;;5.08;nan
55685;BME280;41883;49.544;8.646;2023-04-04T19:36:20;101236.44;;;5.13;nan
55685;BME280;41883;49.544;8.646;2023-04-04T19:38:46;101240.66;;;5.15;nan
55685;BME280;41883;49.544;8.646;2023-04-04T19:43:43;101235.03;;;5.07;nan
55685;BME280;41883;49.544;8.646;2023-04-04T19:46:12;101245.63;;;5.05;nan
55685;BME280;41883;49.544;8.646;2023-04-04T19:48:45;101246.97;;;4.98;nan
55685;BME280;41883;49.544;8.646;2023-04-04T19:53:41;101248.31;;;4.91;nan
55685;BME280;41883;49.544;8.646;2023-04-04T19:56:07;101251.84;;;4.90;nan
55685;BME280;41883;49.544;8.646;2023-04-04T19:58:33;101247.09;;;4.82;nan
55685;BME280;41883;49.544;8.646;2023-04-04T20:00:58;101247.47;;;4.76;nan
55685;BME280;41883;49.544;8.646;2023-04-04T20:03:31;101251.78;;;4.77;nan
55685;BME280;41883;49.544;8.646;2023-04-04T20:06:05;101247.88;;;4.70;nan
55685;BME280;41883;49.544;8.646;2023-04-04T20:08:49;101251.59;;;4.66;nan
55685;BME280;41883;49.544;8.646;2023-04-04T20:11:21;101243.84;;;4.64;nan
55685;BME280;41883;49.544;8.646;2023-04-04T20:13:48;101242.38;;;4.60;nan
55685;BME280;41883;49.544;8.646;2023-04-04T20:16:14;101236.66;;;4.54;nan
55685;BME280;41883;49.544;8.646;2023-04-04T20:18:43;101236.13;;;4.49;nan
55685;BME280;41883;49.544;8.646;2023-04-04T20:23:48;101244.34;;;4.42;nan
55685;BME280;41883;49.544;8.646;2023-04-04T20:29:27;101245.94;;;4.31;nan
55685;BME280;41883;49.544;8.646;2023-04-04T20:31:54;101247.91;;;4.27;nan
55685;BME280;41883;49.544;8.646;2023-04-04T20:34:38;101248.19;;;4.22;nan
55685;BME280;41883;49.544;8.646;2023-04-04T20:37:16;101250.13;;;4.19;nan
55685;BME280;41883;49.544;8.646;2023-04-04T20:39:47;101250.41;;;4.14;nan
55685;BME280;41883;49.544;8.646;2023-04-04T20:42:17;101256.09;;;4.07;nan
55685;BME280;41883;49.544;8.646;2023-04-04T20:44:43;101249.00;;;4.09;nan
55685;BME280;41883;49.544;8.646;2023-04-04T20:49:52;101253.28;;;3.95;nan
55685;BME280;41883;49.544;8.646;2023-04-04T20:52:21;101260.00;;;3.85;nan
55685;BME280;41883;49.544;8.646;2023-04-04T20:54:46;101268.13;;;3.80;nan
55685;BME280;41883;49.544;8.646;2023-04-04T20:57:11;101262.13;;;3.78;nan
55685;BME280;41883;49.544;8.646;2023-04-04T20:59:42;101262.44;;;3.88;nan
55685;BME280;41883;49.544;8.646;2023-04-04T21:02:09;101267.50;;;3.91;nan
55685;BME280;41883;49.544;8.646;2023-04-04T21:04:35;101268.97;;;3.95;nan
55685;BME280;41883;49.544;8.646;2023-04-04T21:07:01;101267.31;;;3.94;nan
55685;BME280;41883;49.544;8.646;2023-04-04T21:09:27;101273.75;;;3.89;nan
55685;BME280;41883;49.544;8.646;2023-04-04T21:11:52;101267.56;;;3.90;nan
55685;BME280;41883;49.544;8.646;2023-04-04T21:14:31;101266.63;;;3.91;nan
55685;BME280;41883;49.544;8.646;2023-04-04T21:16:57;101269.09;;;3.94;nan
55685;BME280;41883;49.544;8.646;2023-04-04T21:19:22;101273.91;;;3.86;nan
55685;BME280;41883;49.544;8.646;2023-04-04T21:21:47;101275.22;;;3.78;nan
55685;BME280;41883;49.544;8.646;2023-04-04T21:24:12;101277.34;;;3.72;nan
55685;BME280;41883;49.544;8.646;2023-04-04T21:26:38;101272.28;;;3.69;nan
55685;BME280;41883;49.544;8.646;2023-04-04T21:29:12;101274.91;;;3.69;nan
55685;BME280;41883;49.544;8.646;2023-04-04T21:31:41;101274.00;;;3.70;nan
55685;BME280;41883;49.544;8.646;2023-04-04T21:34:11;101278.53;;;3.66;nan
55685;BME280;41883;49.544;8.646;2023-04-04T21:36:36;101272.41;;;3.67;nan
55685;BME280;41883;49.544;8.646;2023-04-04T21:39:05;101274.41;;;3.62;nan
55685;BME280;41883;49.544;8.646;2023-04-04T21:41:31;101283.47;;;3.56;nan
55685;BME280;41883;49.544;8.646;2023-04-04T21:43:57;101285.88;;;3.59;nan
55685;BME280;41883;49.544;8.646;2023-04-04T21:46:26;101277.88;;;3.63;nan
55685;BME280;41883;49.544;8.646;2023-04-04T21:48:52;101282.63;;;3.56;nan
55685;BME280;41883;49.544;8.646;2023-04-04T21:51:17;101282.97;;;3.50;nan
55685;BME280;41883;49.544;8.646;2023-04-04T21:53:43;101283.31;;;3.44;nan
55685;BME280;41883;49.544;8.646;2023-04-04T21:56:09;101284.50;;;3.38;nan
55685;BME280;41883;49.544;8.646;2023-04-04T21:58:34;101280.03;;;3.40;nan
55685;BME280;41883;49.544;8.646;2023-04-04T22:01:00;101280.59;;;3.45;nan
55685;BME280;41883;49.544;8.646;2023-04-04T22:03:28;101285.94;;;3.44;nan
55685;BME280;41883;49.544;8.646;2023-04-04T22:05:53;101272.00;;;3.43;nan
55685;BME280;41883;49.544;8.646;2023-04-04T22:08:18;101271.44;;;3.38;nan
55685;BME280;41883;49.544;8.646;2023-04-04T22:10:44;101278.69;;;3.33;nan
55685;BME280;41883;49.544;8.646;2023-04-04T22:13:12;101270.19;;;3.29;nan
55685;BME280;41883;49.544;8.646;2023-04-04T22:15:47;101265.88;;;3.28;nan
55685;BME280;41883;49.544;8.646;2023-04-04T22:18:13;101271.03;;;3.30;nan
55685;BME280;41883;49.544;8.646;2023-04-04T22:20:41;101273.72;;;3.28;nan
55685;BME280;41883;49.544;8.646;2023-04-04T22:23:07;101282.50;;;3.27;nan
55685;BME280;41883;49.544;8.646;2023-04-04T22:25:32;101272.31;;;3.23;nan
55685;BME280;41883;49.544;8.646;2023-04-04T22:27:58;101273.56;;;3.15;nan
55685;BME280;41883;49.544;8.646;2023-04-04T22:30:26;101269.44;;;3.11;nan
55685;BME280;41883;49.544;8.646;2023-04-04T22:32:52;101262.63;;;3.09;nan
55685;BME280;41883;49.544;8.646;2023-04-04T22:35:23;101258.06;;;3.12;nan
55685;BME280;41883;49.544;8.646;2023-04-04T22:37:48;101263.38;;;3.11;nan
55685;BME280;41883;49.544;8.646;2023-04-04T22:40:14;101256.63;;;3.07;nan
55685;BME280;41883;49.544;8.646;2023-04-04T22:42:39;101255.88;;;3.05;nan
55685;BME280;41883;49.544;8.646;2023-04-04T22:45:05;101253.50;;;3.00;nan
55685;BME280;41883;49.544;8.646;2023-04-04T22:47:30;101253.03;;;2.93;nan
55685;BME280;41883;49.544;8.646;2023-04-04T22:49:56;101263.97;;;3.00;nan
55685;BME280;41883;49.544;8.646;2023-04-04T22:52:28;101249.41;;;2.96;nan
55685;BME280;41883;49.544;8.646;2023-04-04T22:54:54;101249.41;;;2.96;nan
55685;BME280;41883;49.544;8.646;2023-04-04T22:57:20;101248.81;;;2.91;nan
55685;BME280;41883;49.544;8.646;2023-04-04T22:59:45;101245.78;;;2.83;nan
55685;BME280;41883;49.544;8.646;2023-04-04T23:02:10;101254.88;;;2.75;nan
55685;BME280;41883;49.544;8.646;2023-04-04T23:04:35;101242.47;;;2.63;nan
55685;BME280;41883;49.544;8.646;2023-04-04T23:07:01;101254.19;;;2.56;nan
55685;BME280;41883;49.544;8.646;2023-04-04T23:09:27;101250.28;;;2.47;nan
55685;BME280;41883;49.544;8.646;2023-04-04T23:11:52;101244.47;;;2.42;nan
55685;BME280;41883;49.544;8.646;2023-04-04T23:14:18;101243.81;;;2.39;nan
55685;BME280;41883;49.544;8.646;2023-04-04T23:16:43;101250.63;;;2.41;nan
55685;BME280;41883;49.544;8.646;2023-04-04T23:19:09;101245.56;;;2.38;nan
55685;BME280;41883;49.544;8.646;2023-04-04T23:21:35;101246.66;;;2.34;nan
55685;BME280;41883;49.544;8.646;2023-04-04T23:24:00;101241.75;;;2.28;nan
55685;BME280;41883;49.544;8.646;2023-04-04T23:26:26;101232.56;;;2.21;nan
55685;BME280;41883;49.544;8.646;2023-04-04T23:28:51;101239.84;;;2.14;nan
55685;BME280;41883;49.544;8.646;2023-04-04T23:31:17;101241.09;;;2.07;nan
55685;BME280;41883;49.544;8.646;2023-04-04T23:33:44;101236.13;;;2.02;nan
55685;BME280;41883;49.544;8.646;2023-04-04T23:36:09;101237.28;;;1.97;nan
55685;BME280;41883;49.544;8.646;2023-04-04T23:38:34;101244.50;;;1.91;nan
55685;BME280;41883;49.544;8.646;2023-04-04T23:41:00;101239.59;;;1.85;nan
55685;BME280;41883;49.544;8.646;2023-04-04T23:43:25;101236.22;;;1.83;nan
55685;BME280;41883;49.544;8.646;2023-04-04T23:45:50;101230.41;;;1.78;nan
55685;BME280;41883;49.544;8.646;2023-04-04T23:48:16;101236.53;;;1.77;nan
55685;BME280;41883;49.544;8.646;2023-04-04T23:50:41;101226.34;;;1.73;nan
55685;BME280;41883;49.544;8.646;2023-04-04T23:53:08;101224.97;;;1.65;nan
55685;BME280;41883;49.544;8.646;2023-04-04T23:55:33;101227.97;;;1.58;nan
55685;BME280;41883;49.544;8.646;2023-04-04T23:57:58;101226.59;;;1.51;nan
